createdAt,value
2022-09-17T00:02:58.993Z,100099.25
2022-09-17T00:06:03.212Z,100101.03
2022-09-17T00:09:09.586Z,100103.72
2022-09-17T00:12:12.480Z,100106.38
2022-09-17T00:15:15.637Z,100107.34
2022-09-17T00:18:18.464Z,100118.00
2022-09-17T00:21:21.921Z,100117.13
2022-09-17T00:24:26.175Z,100123.31
2022-09-17T00:27:28.959Z,100116.25
2022-09-17T00:30:31.804Z,100124.25
2022-09-17T00:33:34.588Z,100127.78
2022-09-17T00:36:38.617Z,100139.31
2022-09-17T00:39:43.176Z,100137.56
2022-09-17T00:42:46.179Z,100143.78
2022-09-17T00:45:49.380Z,100137.56
2022-09-17T00:48:53.864Z,100150.84
2022-09-17T00:52:02.773Z,100151.88
2022-09-17T00:55:14.112Z,100159.84
2022-09-17T00:58:19.930Z,100162.53
2022-09-17T01:01:22.816Z,100160.78
2022-09-17T01:04:27.875Z,100166.13
2022-09-17T01:07:46.995Z,100174.13
2022-09-17T01:11:07.024Z,100171.44
2022-09-17T01:14:22.103Z,100167.00
2022-09-17T01:17:30.903Z,100171.44
2022-09-17T01:21:04.531Z,100168.78
2022-09-17T01:24:49.051Z,100174.13
2022-09-17T01:28:22.013Z,100177.66
2022-09-17T01:31:42.152Z,100177.66
2022-09-17T01:34:54.901Z,100171.44
2022-09-17T01:38:06.532Z,100161.75
2022-09-17T01:41:17.041Z,100169.75
2022-09-17T01:44:27.057Z,100165.28
2022-09-17T01:47:38.734Z,100168.88
2022-09-17T01:50:47.736Z,100164.53
2022-09-17T01:53:57.850Z,100174.22
2022-09-17T01:57:05.464Z,100168.88
2022-09-17T02:00:11.140Z,100180.41
2022-09-17T02:03:22.084Z,100168.03
2022-09-17T02:06:30.930Z,100178.69
2022-09-17T02:09:40.192Z,100176.88
2022-09-17T02:12:47.781Z,100171.56
2022-09-17T02:15:57.537Z,100177.75
2022-09-17T02:19:07.584Z,100176.00
2022-09-17T02:22:22.714Z,100173.34
2022-09-17T02:25:30.135Z,100177.84
2022-09-17T02:28:39.495Z,100176.97
2022-09-17T02:31:42.525Z,100178.69
2022-09-17T02:34:47.519Z,100185.84
2022-09-17T02:37:53.128Z,100180.50
2022-09-17T02:41:06.559Z,100184.09
2022-09-17T02:44:22.615Z,100190.31
2022-09-17T02:47:42.340Z,100196.50
2022-09-17T02:51:03.757Z,100190.31
2022-09-17T02:54:18.014Z,100192.97
2022-09-17T02:57:28.198Z,100192.97
2022-09-17T03:00:31.471Z,100197.44
2022-09-17T03:03:39.288Z,100198.28
2022-09-17T03:06:46.180Z,100190.31
2022-09-17T03:09:49.032Z,100187.72
2022-09-17T03:12:54.778Z,100192.09
2022-09-17T03:15:57.695Z,100191.34
2022-09-17T03:19:00.685Z,100195.69
2022-09-17T03:22:04.893Z,100195.69
2022-09-17T03:25:08.762Z,100202.84
2022-09-17T03:28:11.578Z,100201.91
2022-09-17T03:31:14.526Z,100196.56
2022-09-17T03:34:17.803Z,100211.69
2022-09-17T03:37:22.045Z,100202.84
2022-09-17T03:40:24.940Z,100209.88
2022-09-17T03:43:28.161Z,100208.19
2022-09-17T03:46:30.991Z,100197.53
2022-09-17T03:49:34.005Z,100205.53
2022-09-17T03:52:38.299Z,100200.19
2022-09-17T03:55:41.679Z,100202.84
2022-09-17T03:58:44.541Z,100193.13
2022-09-17T04:01:47.431Z,100199.31
2022-09-17T04:04:50.273Z,100194.88
2022-09-17T04:07:54.421Z,100201.13
2022-09-17T04:10:57.192Z,100198.47
2022-09-17T04:14:00.066Z,100209.13
2022-09-17T04:17:02.833Z,100210.84
2022-09-17T04:20:07.167Z,100202.84
2022-09-17T04:23:12.931Z,100209.13
2022-09-17T04:26:15.767Z,100218.06
2022-09-17T04:29:18.551Z,100224.25
2022-09-17T04:32:21.368Z,100219.88
2022-09-17T04:35:24.152Z,100218.06
2022-09-17T04:38:28.384Z,100218.91
2022-09-17T04:41:31.165Z,100225.19
2022-09-17T04:44:33.965Z,100226.06
2022-09-17T04:47:39.715Z,100223.41
2022-09-17T04:50:42.505Z,100226.06
2022-09-17T04:53:46.793Z,100232.31
2022-09-17T04:56:49.621Z,100229.56
2022-09-17T04:59:52.580Z,100234.06
2022-09-17T05:02:56.540Z,100228.72
2022-09-17T05:05:59.817Z,100228.72
2022-09-17T05:09:04.033Z,100228.72
2022-09-17T05:12:07.067Z,100231.41
2022-09-17T05:15:10.316Z,100235.84
2022-09-17T05:18:13.270Z,100237.66
2022-09-17T05:21:16.192Z,100239.38
2022-09-17T05:24:20.339Z,100242.97
2022-09-17T05:27:23.236Z,100248.31
2022-09-17T05:30:26.025Z,100250.03
2022-09-17T05:33:29.056Z,100250.03
2022-09-17T05:36:31.860Z,100245.56
2022-09-17T05:39:36.005Z,100250.03
2022-09-17T05:42:38.853Z,100248.22
2022-09-17T05:45:41.925Z,100257.06
2022-09-17T05:48:44.723Z,100257.06
2022-09-17T05:51:48.320Z,100259.84
2022-09-17T05:54:52.491Z,100262.50
2022-09-17T05:57:55.286Z,100263.38
2022-09-17T06:01:02.214Z,100274.03
2022-09-17T06:04:05.014Z,100266.97
2022-09-17T06:07:08.531Z,100263.44
2022-09-17T06:10:12.757Z,100273.16
2022-09-17T06:13:15.529Z,100268.75
2022-09-17T06:16:18.352Z,100272.28
2022-09-17T06:19:21.247Z,100273.06
2022-09-17T06:22:24.049Z,100274.84
2022-09-17T06:25:29.473Z,100271.34
2022-09-17T06:28:35.802Z,100275.72
2022-09-17T06:31:40.863Z,100279.34
2022-09-17T06:34:43.909Z,100283.72
2022-09-17T06:37:46.719Z,100285.50
2022-09-17T06:40:53.237Z,100284.69
2022-09-17T06:43:56.065Z,100286.47
2022-09-17T06:46:58.924Z,100288.28
2022-09-17T06:50:01.792Z,100287.34
2022-09-17T06:53:04.585Z,100282.00
2022-09-17T06:56:10.323Z,100285.50
2022-09-17T06:59:13.082Z,100297.03
2022-09-17T07:02:15.953Z,100291.69
2022-09-17T07:05:18.761Z,100283.72
2022-09-17T07:08:21.659Z,100282.78
2022-09-17T07:11:26.074Z,100273.06
2022-09-17T07:14:28.853Z,100281.91
2022-09-17T07:17:31.655Z,100288.09
2022-09-17T07:20:34.456Z,100288.16
2022-09-17T07:23:38.267Z,100289.03
2022-09-17T07:26:42.479Z,100289.03
2022-09-17T07:29:45.270Z,100288.16
2022-09-17T07:32:48.219Z,100290.78
2022-09-17T07:35:55.296Z,100292.66
2022-09-17T07:38:58.045Z,100294.38
2022-09-17T07:42:03.586Z,100296.09
2022-09-17T07:45:07.519Z,100292.56
2022-09-17T07:48:10.282Z,100293.44
2022-09-17T07:51:16.895Z,100297.78
2022-09-17T07:54:20.249Z,100296.94
2022-09-17T07:57:24.434Z,100306.75
2022-09-17T08:00:27.228Z,100293.44
2022-09-17T08:03:30.193Z,100296.09
2022-09-17T08:06:33.331Z,100305.88
2022-09-17T08:09:36.123Z,100302.34
2022-09-17T08:12:40.335Z,100298.75
2022-09-17T08:15:43.153Z,100305.88
2022-09-17T08:18:48.458Z,100298.75
2022-09-17T08:21:51.795Z,100293.44
2022-09-17T08:24:54.621Z,100301.44
2022-09-17T08:27:58.801Z,100293.44
2022-09-17T08:31:02.844Z,100291.59
2022-09-17T08:34:09.312Z,100297.78
2022-09-17T08:37:12.068Z,100287.13
2022-09-17T08:40:20.950Z,100288.88
2022-09-17T08:43:26.477Z,100287.13
2022-09-17T08:46:32.832Z,100286.28
2022-09-17T08:49:37.848Z,100280.94
2022-09-17T08:53:07.173Z,100280.94
2022-09-17T08:56:14.749Z,100290.66
2022-09-17T08:59:26.345Z,100300.47
2022-09-17T09:02:45.108Z,100296.94
2022-09-17T09:05:52.423Z,100303.13
2022-09-17T09:09:00.167Z,100304.00
2022-09-17T09:12:07.771Z,100310.19
2022-09-17T09:15:24.713Z,100314.53
2022-09-17T09:18:30.795Z,100311.06
2022-09-17T09:21:43.457Z,100311.88
2022-09-17T09:24:54.729Z,100308.38
2022-09-17T09:28:16.290Z,100316.38
2022-09-17T09:31:35.113Z,100315.50
2022-09-17T09:34:38.905Z,100312.84
2022-09-17T09:37:45.591Z,100319.97
2022-09-17T09:40:54.853Z,100322.53
2022-09-17T09:44:12.489Z,100335.09
2022-09-17T09:47:30.769Z,100331.50
2022-09-17T09:51:05.239Z,100339.50
2022-09-17T09:54:19.720Z,100346.53
2022-09-17T09:57:33.057Z,100343.84
2022-09-17T10:00:39.313Z,100339.41
2022-09-17T10:03:46.111Z,100343.84
2022-09-17T10:06:51.432Z,100340.25
2022-09-17T10:10:09.829Z,100349.19
2022-09-17T10:13:14.891Z,100344.72
2022-09-17T10:16:19.823Z,100337.59
2022-09-17T10:19:25.602Z,100338.53
2022-09-17T10:22:31.576Z,100342.94
2022-09-17T10:25:35.833Z,100333.19
2022-09-17T10:28:47.845Z,100341.19
2022-09-17T10:31:52.816Z,100334.94
2022-09-17T10:35:04.346Z,100335.88
2022-09-17T10:38:27.153Z,100336.63
2022-09-17T10:41:30.087Z,100334.06
2022-09-17T10:44:34.460Z,100334.94
2022-09-17T10:47:42.427Z,100341.97
2022-09-17T10:50:51.419Z,100344.63
2022-09-17T10:54:16.094Z,100347.28
2022-09-17T10:57:29.945Z,100340.16
2022-09-17T11:00:44.985Z,100341.97
2022-09-17T11:04:11.592Z,100353.56
2022-09-17T11:07:34.902Z,100344.63
2022-09-17T11:10:44.458Z,100341.13
2022-09-17T11:13:55.646Z,100340.25
2022-09-17T11:17:12.361Z,100344.63
2022-09-17T11:20:30.062Z,100340.16
2022-09-17T11:23:53.128Z,100338.38
2022-09-17T11:27:03.648Z,100342.81
2022-09-17T11:30:15.888Z,100337.50
2022-09-17T11:33:40.788Z,100333.03
2022-09-17T11:36:51.927Z,100338.38
2022-09-17T11:40:01.559Z,100354.34
2022-09-17T11:43:13.650Z,100341.03
2022-09-17T11:46:22.166Z,100349.94
2022-09-17T11:49:34.078Z,100343.69
2022-09-17T11:52:42.802Z,100354.34
2022-09-17T11:55:51.930Z,100346.34
2022-09-17T11:59:03.127Z,100341.03
2022-09-17T12:02:15.921Z,100343.69
2022-09-17T12:05:23.693Z,100336.47
2022-09-17T12:08:30.357Z,100336.47
2022-09-17T12:11:41.101Z,100340.06
2022-09-17T12:14:50.129Z,100328.56
2022-09-17T12:18:27.810Z,100339.13
2022-09-17T12:21:28.874Z,100323.25
2022-09-17T12:24:33.146Z,100330.38
2022-09-17T12:27:42.513Z,100332.06
2022-09-17T12:30:56.123Z,100330.38
2022-09-17T12:34:10.371Z,100327.72
2022-09-17T12:37:21.263Z,100325.81
2022-09-17T12:40:34.960Z,100316.09
2022-09-17T12:43:54.777Z,100315.25
2022-09-17T12:47:12.934Z,100300.03
2022-09-17T12:50:21.661Z,100293.84
2022-09-17T12:53:30.224Z,100289.38
2022-09-17T12:56:54.850Z,100293.84
2022-09-17T13:00:07.925Z,100302.75
2022-09-17T13:03:22.024Z,100301.84
2022-09-17T13:06:44.854Z,100294.69
2022-09-17T13:10:13.762Z,100292.09
2022-09-17T13:13:33.465Z,100320.47
2022-09-17T13:16:43.458Z,100318.75
2022-09-17T13:19:59.487Z,100314.38
2022-09-17T13:23:02.357Z,100320.56
2022-09-17T13:26:08.121Z,100318.75
2022-09-17T13:29:11.550Z,100317.81
2022-09-17T13:32:43.706Z,100311.53
2022-09-17T13:35:52.813Z,100307.16
2022-09-17T13:38:55.835Z,100309.81
2022-09-17T13:42:06.024Z,100305.34
2022-09-17T13:45:13.602Z,100302.75
2022-09-17T13:48:22.786Z,100309.81
2022-09-17T13:51:50.411Z,100309.81
2022-09-17T13:54:53.268Z,100301.94
2022-09-17T13:57:59.167Z,100315.16
2022-09-17T14:01:03.619Z,100309.81
2022-09-17T14:04:47.672Z,100300.09
2022-09-17T14:07:51.955Z,100304.50
2022-09-17T14:10:54.754Z,100293.84
2022-09-17T14:13:58.388Z,100299.16
2022-09-17T14:17:01.197Z,100299.06
2022-09-17T14:20:06.337Z,100309.81
2022-09-17T14:23:13.359Z,100300.88
2022-09-17T14:26:26.506Z,100306.19
2022-09-17T14:29:43.653Z,100317.81
2022-09-17T14:32:54.463Z,100300.03
2022-09-17T14:36:02.897Z,100301.84
2022-09-17T14:39:14.775Z,100293.84
2022-09-17T14:42:21.027Z,100291.16
2022-09-17T14:45:27.970Z,100288.50
2022-09-17T14:48:32.976Z,100288.50
2022-09-17T14:51:41.749Z,100291.16
2022-09-17T14:54:44.712Z,100290.22
2022-09-17T14:57:50.836Z,100288.50
2022-09-17T15:00:54.503Z,100294.69
2022-09-17T15:04:12.052Z,100300.88
2022-09-17T15:07:16.223Z,100293.84
2022-09-17T15:10:21.237Z,100309.81
2022-09-17T15:13:28.262Z,100308.09
2022-09-17T15:16:33.303Z,100309.81
2022-09-17T15:19:39.773Z,100321.34
2022-09-17T15:22:46.888Z,100316.09
2022-09-17T15:25:53.992Z,100305.44
2022-09-17T15:28:58.334Z,100303.72
2022-09-17T15:32:04.846Z,100299.16
2022-09-17T15:35:23.449Z,100301.84
2022-09-17T15:38:29.373Z,100300.88
2022-09-17T15:41:34.669Z,100295.63
2022-09-17T15:44:38.755Z,100307.16
2022-09-17T15:47:53.936Z,100307.06
2022-09-17T15:50:57.859Z,100311.53
2022-09-17T15:54:04.947Z,100312.50
2022-09-17T15:57:15.056Z,100309.81
2022-09-17T16:00:20.092Z,100315.16
2022-09-17T16:04:05.264Z,100312.50
2022-09-17T16:07:29.529Z,100320.47
2022-09-17T16:10:33.850Z,100316.03
2022-09-17T16:13:36.908Z,100325.81
2022-09-17T16:16:39.734Z,100323.25
2022-09-17T16:19:42.924Z,100330.16
2022-09-17T16:22:47.885Z,100329.34
2022-09-17T16:25:52.887Z,100325.81
2022-09-17T16:29:02.657Z,100326.69
2022-09-17T16:32:05.617Z,100340.00
2022-09-17T16:35:12.859Z,100339.13
2022-09-17T16:38:17.947Z,100342.72
2022-09-17T16:41:22.073Z,100352.44
2022-09-17T16:44:24.845Z,100357.78
2022-09-17T16:47:27.783Z,100358.72
2022-09-17T16:50:30.845Z,100359.69
2022-09-17T16:53:34.647Z,100362.34
2022-09-17T16:56:38.815Z,100362.34
2022-09-17T16:59:41.599Z,100365.88
2022-09-17T17:02:45.147Z,100367.66
2022-09-17T17:05:48.094Z,100371.97
2022-09-17T17:08:51.720Z,100371.09
2022-09-17T17:11:56.085Z,100381.75
2022-09-17T17:14:58.872Z,100379.09
2022-09-17T17:18:01.667Z,100376.53
2022-09-17T17:21:08.020Z,100377.38
2022-09-17T17:24:12.204Z,100377.38
2022-09-17T17:27:16.327Z,100365.00
2022-09-17T17:30:19.170Z,100373.09
2022-09-17T17:33:21.931Z,100371.25
2022-09-17T17:36:24.686Z,100385.44
2022-09-17T17:39:27.582Z,100378.31
2022-09-17T17:42:37.172Z,100373.94
2022-09-17T17:45:40.511Z,100368.59
2022-09-17T17:48:43.759Z,100371.19
2022-09-17T17:51:46.545Z,100373.00
2022-09-17T17:54:49.541Z,100364.13
2022-09-17T17:58:01.089Z,100366.81
2022-09-17T18:01:10.970Z,100368.59
2022-09-17T18:04:13.858Z,100373.94
2022-09-17T18:07:16.637Z,100368.59
2022-09-17T18:10:19.766Z,100378.44
2022-09-17T18:13:24.812Z,100376.69
2022-09-17T18:16:27.724Z,100380.22
2022-09-17T18:19:30.613Z,100386.47
2022-09-17T18:22:33.460Z,100383.81
2022-09-17T18:25:36.266Z,100385.56
2022-09-17T18:28:40.819Z,100393.53
2022-09-17T18:31:44.640Z,100393.53
2022-09-17T18:34:47.497Z,100389.91
2022-09-17T18:37:50.325Z,100393.53
2022-09-17T18:40:53.413Z,100404.19
2022-09-17T18:43:59.746Z,100398.88
2022-09-17T18:47:02.688Z,100401.53
2022-09-17T18:50:05.988Z,100389.16
2022-09-17T18:53:08.801Z,100402.47
2022-09-17T18:56:15.876Z,100404.31
2022-09-17T18:59:20.025Z,100396.31
2022-09-17T19:02:22.900Z,100400.78
2022-09-17T19:05:25.878Z,100393.63
2022-09-17T19:08:29.082Z,100390.09
2022-09-17T19:11:31.893Z,100391.81
2022-09-17T19:14:36.138Z,100391.81
2022-09-17T19:17:39.883Z,100390.09
2022-09-17T19:20:42.666Z,100384.78
2022-09-17T19:23:47.982Z,100384.78
2022-09-17T19:26:51.170Z,100390.09
2022-09-17T19:29:57.852Z,100387.44
2022-09-17T19:33:00.890Z,100388.38
2022-09-17T19:36:06.319Z,100393.69
2022-09-17T19:39:09.136Z,100393.69
2022-09-17T19:42:11.986Z,100389.34
2022-09-17T19:45:16.498Z,100391.03
2022-09-17T19:48:23.200Z,100391.03
2022-09-17T19:51:29.642Z,100388.38
2022-09-17T19:54:32.479Z,100391.03
2022-09-17T19:57:35.238Z,100385.72
2022-09-17T20:00:39.853Z,100389.25
2022-09-17T20:03:44.898Z,100391.91
2022-09-17T20:06:47.874Z,100393.69
2022-09-17T20:09:50.764Z,100393.69
2022-09-17T20:12:53.638Z,100394.66
2022-09-17T20:16:04.132Z,100387.50
2022-09-17T20:19:08.001Z,100388.47
2022-09-17T20:22:10.892Z,100388.47
2022-09-17T20:25:13.715Z,100378.69
2022-09-17T20:28:16.505Z,100389.34
2022-09-17T20:31:22.724Z,100380.47
2022-09-17T20:34:25.576Z,100384.00
2022-09-17T20:38:18.458Z,100383.16
2022-09-17T20:40:52.498Z,100390.16
2022-09-17T20:43:55.976Z,100397.34
2022-09-17T20:47:01.393Z,100389.34
2022-09-17T20:50:04.445Z,100392.00
2022-09-17T20:53:07.197Z,100390.28
2022-09-17T20:56:11.892Z,100383.25
2022-09-17T20:59:18.601Z,100392.06
2022-09-17T21:02:23.270Z,100388.56
2022-09-17T21:05:26.066Z,100388.56
2022-09-17T21:08:29.070Z,100382.38
2022-09-17T21:11:32.193Z,100393.03
2022-09-17T21:14:35.074Z,100393.91
2022-09-17T21:17:40.715Z,100393.03
2022-09-17T21:20:43.494Z,100390.28
2022-09-17T21:23:46.349Z,100386.75
2022-09-17T21:26:51.299Z,100390.28
2022-09-17T21:29:54.107Z,100393.91
2022-09-17T21:33:00.029Z,100388.56
2022-09-17T21:36:04.883Z,100388.56
2022-09-17T21:39:12.260Z,100381.50
2022-09-17T21:42:15.054Z,100382.38
2022-09-17T21:45:18.215Z,100386.84
2022-09-17T21:48:22.371Z,100392.16
2022-09-17T21:51:30.256Z,100387.78
2022-09-17T21:54:33.123Z,100391.28
2022-09-17T21:57:35.917Z,100392.16
2022-09-17T22:00:38.693Z,100386.84
2022-09-17T22:03:43.864Z,100394.81
2022-09-17T22:06:47.971Z,100393.03
2022-09-17T22:09:51.253Z,100396.56
2022-09-17T22:12:54.027Z,100397.50
2022-09-17T22:15:57.710Z,100393.13
2022-09-17T22:19:03.026Z,100395.78
2022-09-17T22:22:05.921Z,100390.47
2022-09-17T22:25:09.800Z,100401.13
2022-09-17T22:28:21.062Z,100401.19
2022-09-17T22:31:24.624Z,100398.53
2022-09-17T22:34:29.717Z,100402.06
2022-09-17T22:37:32.482Z,100388.72
2022-09-17T22:40:37.065Z,100387.88
2022-09-17T22:43:40.261Z,100387.88
2022-09-17T22:46:43.645Z,100387.88
2022-09-17T22:49:47.833Z,100381.69
2022-09-17T22:52:50.651Z,100381.69
2022-09-17T22:55:56.945Z,100376.38
2022-09-17T22:59:00.380Z,100374.63
2022-09-17T23:02:03.251Z,100371.03
2022-09-17T23:05:07.825Z,100368.44
2022-09-17T23:08:10.701Z,100368.44
2022-09-17T23:11:18.260Z,100365.78
2022-09-17T23:14:21.108Z,100368.44
2022-09-17T23:17:28.650Z,100364.94
2022-09-17T23:20:33.639Z,100367.63
2022-09-17T23:23:37.851Z,100366.75
2022-09-17T23:26:40.655Z,100369.41
2022-09-17T23:29:43.602Z,100357.78
2022-09-17T23:32:46.384Z,100368.44
2022-09-17T23:35:50.889Z,100361.41
2022-09-17T23:38:55.550Z,100362.28
2022-09-17T23:41:58.387Z,100361.41
2022-09-17T23:45:02.095Z,100365.88
2022-09-17T23:48:04.951Z,100367.63
2022-09-17T23:51:09.836Z,100372.06
2022-09-17T23:54:12.731Z,100360.56
2022-09-17T23:57:15.521Z,100374.78
